createdAt,value
2023-04-02T00:00:20.586Z,99.90
2023-04-02T00:03:22.907Z,99.90
2023-04-02T00:05:51.579Z,99.90
2023-04-02T00:08:28.708Z,99.90
2023-04-02T00:10:59.547Z,99.90
2023-04-02T00:13:36.918Z,99.90
2023-04-02T00:16:08.572Z,99.90
2023-04-02T00:18:45.327Z,99.90
2023-04-02T00:21:25.947Z,99.90
2023-04-02T00:23:57.340Z,99.90
2023-04-02T00:26:52.395Z,99.90
2023-04-02T00:29:21.278Z,99.90
2023-04-02T00:31:52.449Z,99.90
2023-04-02T00:34:28.896Z,99.90
2023-04-02T00:36:58.352Z,99.90
2023-04-02T00:39:31.665Z,99.90
2023-04-02T00:42:05.888Z,99.90
2023-04-02T00:44:38.586Z,99.90
2023-04-02T00:47:15.582Z,99.90
2023-04-02T00:49:46.147Z,99.90
2023-04-02T00:52:18.188Z,99.90
2023-04-02T00:54:52.194Z,99.90
2023-04-02T00:57:25.919Z,99.90
2023-04-02T01:00:00.882Z,99.90
2023-04-02T01:02:35.890Z,99.90
2023-04-02T01:05:24.278Z,99.90
2023-04-02T01:08:09.120Z,99.90
2023-04-02T01:11:00.696Z,99.90
2023-04-02T01:13:37.938Z,99.90
2023-04-02T01:16:19.349Z,99.90
2023-04-02T01:19:02.001Z,99.90
2023-04-02T01:21:47.336Z,99.90
2023-04-02T01:24:16.767Z,99.90
2023-04-02T01:26:55.645Z,99.90
2023-04-02T01:29:29.981Z,99.90
2023-04-02T01:32:04.847Z,99.90
2023-04-02T01:34:34.798Z,99.90
2023-04-02T01:37:40.637Z,99.90
2023-04-02T01:40:32.039Z,99.90
2023-04-02T01:43:17.136Z,99.90
2023-04-02T01:45:47.343Z,99.90
2023-04-02T01:48:20.006Z,99.90
2023-04-02T01:50:52.719Z,99.90
2023-04-02T01:53:24.855Z,99.90
2023-04-02T01:56:18.165Z,99.90
2023-04-02T01:58:49.364Z,99.90
2023-04-02T02:01:22.892Z,99.90
2023-04-02T02:03:52.669Z,99.90
2023-04-02T02:06:21.776Z,99.90
2023-04-02T02:08:55.910Z,99.90
2023-04-02T02:11:29.497Z,99.90
2023-04-02T02:14:14.238Z,99.90
2023-04-02T02:17:13.545Z,99.90
2023-04-02T02:19:46.797Z,99.90
2023-04-02T02:22:45.391Z,99.90
2023-04-02T02:25:19.511Z,99.90
2023-04-02T02:28:00.788Z,99.90
2023-04-02T02:30:34.094Z,99.90
2023-04-02T02:33:10.121Z,99.90
2023-04-02T02:35:46.389Z,99.90
2023-04-02T02:38:49.146Z,99.90
2023-04-02T02:41:27.361Z,99.90
2023-04-02T02:44:03.652Z,99.90
2023-04-02T02:46:33.639Z,99.90
2023-04-02T02:49:06.161Z,99.90
2023-04-02T02:51:45.510Z,99.90
2023-04-02T02:54:16.429Z,99.90
2023-04-02T02:56:54.199Z,99.90
2023-04-02T02:59:24.342Z,99.90
2023-04-02T03:01:54.598Z,99.90
2023-04-02T03:04:26.240Z,99.90
2023-04-02T03:06:58.121Z,99.90
2023-04-02T03:09:43.793Z,99.90
2023-04-02T03:12:36.127Z,99.90
2023-04-02T03:15:18.041Z,99.90
2023-04-02T03:17:56.426Z,99.90
2023-04-02T03:20:35.016Z,99.90
2023-04-02T03:23:13.947Z,99.90
2023-04-02T03:25:50.607Z,99.90
2023-04-02T03:29:00.848Z,99.90
2023-04-02T03:31:36.259Z,99.90
2023-04-02T03:34:14.624Z,99.90
2023-04-02T03:36:53.631Z,99.90
2023-04-02T03:39:41.859Z,99.90
2023-04-02T03:42:21.001Z,99.90
2023-04-02T03:44:56.251Z,99.90
2023-04-02T03:47:34.907Z,99.90
2023-04-02T03:50:08.653Z,99.90
2023-04-02T03:52:40.344Z,99.90
2023-04-02T03:55:16.322Z,99.90
2023-04-02T03:57:57.951Z,99.90
2023-04-02T04:00:35.652Z,99.90
2023-04-02T04:03:12.852Z,99.90
2023-04-02T04:05:51.856Z,99.90
2023-04-02T04:08:26.453Z,99.90
2023-04-02T04:10:59.931Z,99.90
2023-04-02T04:13:37.988Z,99.90
2023-04-02T04:16:11.723Z,99.90
2023-04-02T04:18:49.150Z,99.90
2023-04-02T04:21:30.089Z,99.90
2023-04-02T04:24:05.893Z,99.90
2023-04-02T04:26:43.580Z,99.90
2023-04-02T04:29:32.531Z,99.90
2023-04-02T04:32:18.778Z,99.90
2023-04-02T04:34:53.320Z,99.90
2023-04-02T04:37:29.197Z,99.90
2023-04-02T04:40:23.850Z,99.90
2023-04-02T04:42:59.023Z,99.90
2023-04-02T04:45:44.672Z,99.90
2023-04-02T04:48:21.715Z,99.90
2023-04-02T04:50:56.346Z,99.90
2023-04-02T04:53:28.610Z,99.90
2023-04-02T04:56:15.892Z,99.90
2023-04-02T04:58:54.989Z,99.90
2023-04-02T05:01:29.900Z,99.90
2023-04-02T05:04:08.419Z,99.90
2023-04-02T05:06:43.789Z,99.90
2023-04-02T05:09:21.186Z,99.90
2023-04-02T05:12:03.257Z,99.90
2023-04-02T05:14:39.849Z,99.90
2023-04-02T05:17:15.754Z,99.90
2023-04-02T05:19:52.685Z,99.90
2023-04-02T05:22:32.170Z,99.90
2023-04-02T05:25:16.706Z,99.90
2023-04-02T05:27:58.143Z,99.90
2023-04-02T05:30:49.409Z,99.90
2023-04-02T05:33:48.910Z,99.90
2023-04-02T05:36:24.243Z,99.90
2023-04-02T05:38:56.413Z,99.90
2023-04-02T05:41:31.252Z,99.90
2023-04-02T05:44:10.408Z,99.90
2023-04-02T05:46:50.344Z,99.90
2023-04-02T05:49:29.367Z,99.90
2023-04-02T05:52:04.708Z,99.90
2023-04-02T05:54:41.104Z,99.90
2023-04-02T05:57:16.192Z,99.90
2023-04-02T05:59:54.022Z,99.90
2023-04-02T06:02:30.941Z,99.90
2023-04-02T06:05:06.705Z,99.90
2023-04-02T06:07:45.177Z,99.90
2023-04-02T06:10:22.843Z,99.90
2023-04-02T06:13:08.868Z,99.90
2023-04-02T06:15:40.073Z,99.90
2023-04-02T06:18:17.517Z,99.90
2023-04-02T06:20:46.490Z,99.90
2023-04-02T06:23:21.952Z,99.90
2023-04-02T06:25:59.200Z,99.90
2023-04-02T06:28:35.919Z,99.90
2023-04-02T06:31:19.946Z,99.90
2023-04-02T06:33:54.741Z,99.90
2023-04-02T06:36:24.755Z,99.90
2023-04-02T06:38:57.127Z,99.90
2023-04-02T06:41:26.541Z,99.90
2023-04-02T06:44:00.342Z,99.40
2023-04-02T06:46:35.765Z,99.20
2023-04-02T06:49:18.849Z,97.20
2023-04-02T06:51:50.580Z,98.70
2023-04-02T06:54:20.069Z,98.30
2023-04-02T06:56:52.029Z,99.00
2023-04-02T06:59:21.303Z,99.80
2023-04-02T07:01:57.184Z,94.90
2023-04-02T07:04:26.238Z,99.90
2023-04-02T07:06:54.880Z,99.90
2023-04-02T07:09:42.408Z,99.90
2023-04-02T07:12:13.910Z,99.90
2023-04-02T07:14:42.407Z,98.60
2023-04-02T07:17:17.830Z,99.90
2023-04-02T07:19:49.613Z,94.70
2023-04-02T07:22:43.060Z,96.40
2023-04-02T07:25:12.492Z,96.90
2023-04-02T07:27:41.320Z,96.60
2023-04-02T07:30:11.085Z,94.40
2023-04-02T07:32:41.325Z,94.40
2023-04-02T07:35:11.462Z,95.10
2023-04-02T07:37:40.408Z,92.50
2023-04-02T07:40:18.317Z,91.50
2023-04-02T07:42:46.800Z,88.90
2023-04-02T07:45:16.143Z,90.90
2023-04-02T07:47:46.497Z,92.80
2023-04-02T07:50:15.019Z,92.60
2023-04-02T07:52:44.681Z,93.30
2023-04-02T07:55:16.265Z,92.80
2023-04-02T07:57:51.543Z,93.60
2023-04-02T08:00:21.585Z,95.20
2023-04-02T08:02:52.876Z,95.00
2023-04-02T08:05:22.546Z,94.20
2023-04-02T08:07:55.684Z,94.30
2023-04-02T08:10:25.650Z,95.60
2023-04-02T08:12:54.163Z,96.60
2023-04-02T08:15:22.707Z,97.90
2023-04-02T08:17:53.650Z,99.00
2023-04-02T08:20:24.671Z,97.40
2023-04-02T08:22:53.231Z,96.70
2023-04-02T08:25:21.727Z,94.00
2023-04-02T08:27:51.015Z,92.40
2023-04-02T08:30:20.712Z,93.10
2023-04-02T08:32:49.365Z,92.30
2023-04-02T08:35:19.666Z,93.30
2023-04-02T08:37:48.112Z,92.90
2023-04-02T08:40:27.625Z,93.00
2023-04-02T08:43:57.558Z,90.20
2023-04-02T08:46:33.377Z,91.40
2023-04-02T08:49:12.502Z,90.60
2023-04-02T08:51:42.739Z,85.60
2023-04-02T08:54:21.654Z,83.40
2023-04-02T08:56:57.685Z,82.10
2023-04-02T08:59:37.558Z,80.40
2023-04-02T09:02:56.412Z,81.00
2023-04-02T09:05:30.724Z,80.90
2023-04-02T09:08:05.132Z,79.00
2023-04-02T09:10:41.756Z,79.60
2023-04-02T09:13:23.873Z,83.60
2023-04-02T09:15:59.833Z,84.30
2023-04-02T09:18:31.955Z,83.40
2023-04-02T09:21:04.977Z,83.80
2023-04-02T09:23:59.286Z,86.50
2023-04-02T09:26:32.123Z,82.70
2023-04-02T09:29:25.836Z,83.50
2023-04-02T09:32:08.713Z,86.30
2023-04-02T09:34:38.188Z,85.20
2023-04-02T09:37:15.200Z,88.70
2023-04-02T09:39:45.204Z,82.60
2023-04-02T09:42:34.155Z,81.10
2023-04-02T09:45:21.963Z,81.20
2023-04-02T09:47:53.165Z,81.80
2023-04-02T09:50:30.043Z,82.60
2023-04-02T09:52:59.324Z,82.40
2023-04-02T09:55:31.233Z,83.40
2023-04-02T09:58:18.612Z,80.10
2023-04-02T10:00:55.249Z,79.80
2023-04-02T10:03:37.220Z,77.40
2023-04-02T10:06:09.645Z,75.50
2023-04-02T10:08:40.853Z,76.00
2023-04-02T10:11:16.792Z,76.30
2023-04-02T10:13:55.422Z,74.70
2023-04-02T10:16:33.124Z,75.10
2023-04-02T10:19:08.728Z,77.20
2023-04-02T10:21:41.535Z,75.80
2023-04-02T10:24:14.675Z,75.70
2023-04-02T10:27:17.473Z,76.40
2023-04-02T10:30:10.405Z,77.30
2023-04-02T10:32:47.666Z,76.10
2023-04-02T10:35:29.759Z,76.60
2023-04-02T10:38:29.059Z,77.90
2023-04-02T10:41:02.350Z,79.00
2023-04-02T10:44:26.942Z,76.40
2023-04-02T10:47:14.864Z,74.20
2023-04-02T10:49:51.299Z,73.50
2023-04-02T10:52:27.775Z,73.50
2023-04-02T10:54:59.429Z,73.10
2023-04-02T10:57:38.069Z,73.90
2023-04-02T11:00:22.349Z,72.10
2023-04-02T11:02:57.871Z,71.30
2023-04-02T11:05:43.930Z,72.30
2023-04-02T11:08:20.269Z,71.60
2023-04-02T11:10:54.197Z,74.20
2023-04-02T11:13:29.682Z,72.40
2023-04-02T11:15:59.628Z,71.40
2023-04-02T11:18:34.309Z,69.20
2023-04-02T11:21:08.648Z,68.40
2023-04-02T11:23:54.925Z,70.20
2023-04-02T11:26:51.200Z,70.60
2023-04-02T11:29:28.048Z,71.60
2023-04-02T11:32:34.577Z,71.00
2023-04-02T11:35:39.266Z,71.40
2023-04-02T11:38:52.888Z,72.40
2023-04-02T11:42:03.094Z,72.50
2023-04-02T11:44:31.566Z,72.20
2023-04-02T11:47:21.228Z,71.30
2023-04-02T11:50:05.331Z,68.90
2023-04-02T11:52:53.191Z,68.70
2023-04-02T11:55:32.092Z,70.70
2023-04-02T11:58:37.973Z,69.70
2023-04-02T12:01:45.987Z,69.20
2023-04-02T12:05:10.453Z,68.30
2023-04-02T12:08:24.567Z,66.90
2023-04-02T12:11:00.480Z,67.80
2023-04-02T12:13:52.861Z,67.30
2023-04-02T12:16:31.350Z,65.90
2023-04-02T12:19:01.176Z,65.60
2023-04-02T12:21:30.873Z,66.60
2023-04-02T12:24:01.932Z,66.10
2023-04-02T12:26:38.415Z,64.70
2023-04-02T12:29:26.946Z,65.80
2023-04-02T12:31:57.336Z,65.80
2023-04-02T12:34:28.896Z,67.20
2023-04-02T12:37:02.653Z,67.20
2023-04-02T12:39:34.525Z,65.60
2023-04-02T12:42:03.094Z,66.10
2023-04-02T12:44:32.845Z,67.50
2023-04-02T12:47:01.499Z,66.20
2023-04-02T12:49:37.778Z,66.60
2023-04-02T12:52:10.211Z,67.60
2023-04-02T12:54:47.907Z,66.10
2023-04-02T12:57:41.134Z,65.40
2023-04-02T13:00:39.306Z,66.00
2023-04-02T13:03:21.369Z,64.10
2023-04-02T13:05:56.264Z,63.50
2023-04-02T13:08:29.046Z,61.90
2023-04-02T13:11:02.261Z,62.20
2023-04-02T13:13:36.127Z,60.80
2023-04-02T13:16:27.820Z,61.50
2023-04-02T13:19:21.699Z,60.40
2023-04-02T13:21:51.842Z,60.70
2023-04-02T13:24:22.303Z,60.50
2023-04-02T13:26:56.429Z,60.30
2023-04-02T13:29:30.406Z,60.80
2023-04-02T13:32:01.482Z,60.60
2023-04-02T13:34:31.009Z,62.30
2023-04-02T13:36:59.920Z,61.20
2023-04-02T13:39:30.313Z,61.80
2023-04-02T13:42:03.798Z,62.00
2023-04-02T13:44:35.748Z,60.50
2023-04-02T13:47:04.677Z,61.80
2023-04-02T13:49:33.442Z,62.00
2023-04-02T13:52:05.123Z,60.70
2023-04-02T13:54:48.847Z,61.10
2023-04-02T13:57:19.147Z,59.10
2023-04-02T13:59:47.667Z,58.60
2023-04-02T14:02:20.066Z,59.60
2023-04-02T14:04:56.111Z,59.60
2023-04-02T14:07:51.646Z,60.00
2023-04-02T14:10:37.249Z,59.20
2023-04-02T14:13:35.713Z,58.50
2023-04-02T14:16:21.434Z,58.60
2023-04-02T14:19:14.045Z,58.30
2023-04-02T14:21:59.249Z,58.50
2023-04-02T14:24:41.611Z,58.40
2023-04-02T14:27:41.685Z,58.60
2023-04-02T14:30:22.892Z,58.90
2023-04-02T14:33:01.475Z,58.30
2023-04-02T14:35:36.339Z,57.40
2023-04-02T14:38:16.956Z,58.40
2023-04-02T14:40:51.527Z,57.60
2023-04-02T14:43:27.681Z,56.90
2023-04-02T14:46:02.247Z,56.20
2023-04-02T14:48:54.388Z,57.20
2023-04-02T14:51:32.171Z,58.00
2023-04-02T14:54:12.259Z,56.80
2023-04-02T14:56:48.601Z,58.00
2023-04-02T14:59:36.559Z,58.00
2023-04-02T15:02:39.389Z,58.40
2023-04-02T15:05:18.493Z,59.10
2023-04-02T15:07:54.836Z,58.60
2023-04-02T15:10:30.069Z,58.50
2023-04-02T15:13:01.793Z,59.00
2023-04-02T15:15:42.632Z,57.60
2023-04-02T15:18:16.311Z,57.70
2023-04-02T15:20:58.437Z,57.80
2023-04-02T15:23:51.071Z,57.90
2023-04-02T15:26:27.220Z,58.10
2023-04-02T15:29:15.884Z,58.10
2023-04-02T15:31:52.907Z,58.10
2023-04-02T15:34:33.160Z,58.40
2023-04-02T15:37:20.955Z,58.90
2023-04-02T15:40:28.196Z,59.90
2023-04-02T15:43:12.028Z,60.30
2023-04-02T15:45:52.568Z,60.90
2023-04-02T15:48:43.398Z,61.40
2023-04-02T15:52:02.316Z,61.20
2023-04-02T15:54:56.976Z,60.70
2023-04-02T15:57:53.202Z,60.30
2023-04-02T16:00:27.986Z,59.70
2023-04-02T16:03:41.812Z,59.50
2023-04-02T16:06:26.848Z,59.60
2023-04-02T16:09:11.419Z,60.60
2023-04-02T16:11:40.375Z,61.10
2023-04-02T16:14:25.244Z,61.40
2023-04-02T16:16:57.092Z,61.70
2023-04-02T16:19:35.536Z,62.40
2023-04-02T16:22:13.269Z,63.00
2023-04-02T16:24:41.770Z,63.70
2023-04-02T16:27:28.853Z,64.20
2023-04-02T16:30:30.619Z,64.50
2023-04-02T16:33:18.556Z,64.50
2023-04-02T16:36:00.856Z,64.80
2023-04-02T16:38:54.766Z,65.30
2023-04-02T16:41:39.376Z,65.90
2023-04-02T16:44:27.387Z,66.00
2023-04-02T16:47:11.346Z,66.80
2023-04-02T16:49:50.178Z,67.30
2023-04-02T16:52:41.509Z,67.70
2023-04-02T16:55:32.451Z,68.10
2023-04-02T16:58:19.985Z,68.70
2023-04-02T17:00:56.223Z,69.00
2023-04-02T17:03:55.655Z,69.30
2023-04-02T17:06:42.343Z,70.40
2023-04-02T17:09:18.836Z,72.10
2023-04-02T17:11:56.602Z,73.70
2023-04-02T17:14:32.703Z,74.40
2023-04-02T17:17:06.145Z,75.10
2023-04-02T17:19:35.706Z,76.30
2023-04-02T17:22:33.110Z,77.70
2023-04-02T17:25:05.785Z,79.60
2023-04-02T17:27:40.513Z,81.30
2023-04-02T17:30:38.699Z,83.60
2023-04-02T17:33:13.609Z,85.20
2023-04-02T17:35:58.589Z,87.60
2023-04-02T17:38:38.652Z,90.20
2023-04-02T17:41:19.158Z,91.80
2023-04-02T17:44:04.729Z,94.20
2023-04-02T17:46:40.220Z,96.50
2023-04-02T17:49:23.028Z,98.70
2023-04-02T17:51:58.650Z,99.90
2023-04-02T17:54:44.507Z,99.90
2023-04-02T17:57:36.056Z,99.90
2023-04-02T18:00:31.040Z,99.90
2023-04-02T18:03:35.136Z,99.90
2023-04-02T18:06:14.224Z,99.90
2023-04-02T18:08:57.534Z,99.90
2023-04-02T18:11:40.964Z,99.90
2023-04-02T18:14:35.134Z,99.90
2023-04-02T18:17:16.852Z,99.90
2023-04-02T18:19:55.120Z,99.90
2023-04-02T18:22:33.872Z,99.90
2023-04-02T18:25:24.730Z,99.90
2023-04-02T18:28:32.304Z,99.90
2023-04-02T18:31:08.879Z,99.90
2023-04-02T18:34:19.782Z,99.90
2023-04-02T18:37:04.764Z,99.90
2023-04-02T18:39:53.643Z,99.90
2023-04-02T18:42:47.949Z,99.90
2023-04-02T18:45:25.921Z,99.90
2023-04-02T18:48:08.075Z,99.90
2023-04-02T18:50:40.973Z,99.90
2023-04-02T18:53:14.641Z,99.90
2023-04-02T18:55:51.319Z,99.90
2023-04-02T18:58:28.199Z,99.90
2023-04-02T19:00:59.195Z,99.90
2023-04-02T19:03:34.029Z,99.90
2023-04-02T19:06:10.203Z,99.90
2023-04-02T19:08:47.200Z,99.90
2023-04-02T19:11:28.476Z,99.90
2023-04-02T19:14:01.002Z,99.90
2023-04-02T19:16:57.491Z,99.90
2023-04-02T19:19:31.901Z,99.90
2023-04-02T19:22:17.866Z,99.90
2023-04-02T19:25:18.001Z,99.90
2023-04-02T19:28:03.520Z,99.90
2023-04-02T19:30:48.452Z,99.90
2023-04-02T19:33:34.751Z,99.90
2023-04-02T19:36:20.957Z,99.90
2023-04-02T19:39:05.879Z,99.90
2023-04-02T19:42:04.358Z,99.90
2023-04-02T19:44:32.898Z,99.90
2023-04-02T19:47:01.402Z,99.90
2023-04-02T19:49:34.044Z,99.90
2023-04-02T19:52:02.500Z,99.90
2023-04-02T19:54:32.313Z,99.90
2023-04-02T19:57:03.112Z,99.90
2023-04-02T19:59:32.572Z,99.90
2023-04-02T20:02:05.870Z,99.90
2023-04-02T20:04:34.570Z,99.90
2023-04-02T20:07:03.145Z,99.90
2023-04-02T20:09:32.939Z,99.90
2023-04-02T20:12:01.444Z,99.90
2023-04-02T20:14:29.940Z,99.90
2023-04-02T20:16:58.553Z,99.90
2023-04-02T20:19:30.047Z,99.90
2023-04-02T20:21:58.579Z,99.90
2023-04-02T20:24:27.075Z,99.90
2023-04-02T20:26:56.886Z,99.90
2023-04-02T20:29:28.121Z,99.90
2023-04-02T20:31:56.988Z,99.90
2023-04-02T20:34:25.969Z,99.90
2023-04-02T20:36:54.764Z,99.90
2023-04-02T20:39:24.129Z,99.90
2023-04-02T20:41:52.592Z,99.90
2023-04-02T20:44:22.714Z,99.90
2023-04-02T20:46:51.188Z,99.90
2023-04-02T20:49:19.640Z,99.90
2023-04-02T20:51:48.594Z,99.90
2023-04-02T20:54:17.736Z,99.90
2023-04-02T20:56:46.324Z,99.90
2023-04-02T20:59:14.816Z,99.90
2023-04-02T21:02:18.519Z,99.90
2023-04-02T21:04:47.845Z,99.90
2023-04-02T21:07:16.680Z,99.90
2023-04-02T21:09:45.297Z,99.90
2023-04-02T21:12:13.896Z,99.90
2023-04-02T21:14:42.359Z,99.90
2023-04-02T21:17:10.811Z,99.90
2023-04-02T21:19:40.764Z,99.90
2023-04-02T21:22:09.184Z,99.90
2023-04-02T21:25:02.707Z,99.90
2023-04-02T21:27:31.122Z,99.90
2023-04-02T21:29:59.629Z,99.90
2023-04-02T21:32:28.130Z,99.90
2023-04-02T21:34:57.973Z,99.90
2023-04-02T21:37:26.512Z,99.90
2023-04-02T21:39:55.381Z,99.90
2023-04-02T21:42:24.155Z,99.90
2023-04-02T21:44:53.400Z,99.90
2023-04-02T21:47:21.895Z,99.90
2023-04-02T21:49:50.365Z,99.90
2023-04-02T21:52:20.269Z,99.90
2023-04-02T21:54:48.709Z,99.90
2023-04-02T21:57:18.984Z,99.90
2023-04-02T21:59:47.593Z,99.90
2023-04-02T22:02:16.008Z,99.90
2023-04-02T22:04:45.171Z,99.90
2023-04-02T22:07:13.730Z,99.90
2023-04-02T22:09:43.570Z,99.90
2023-04-02T22:12:12.538Z,99.90
2023-04-02T22:14:41.020Z,99.90
2023-04-02T22:17:09.481Z,99.90
2023-04-02T22:19:38.059Z,99.90
2023-04-02T22:22:06.514Z,99.90
2023-04-02T22:24:34.970Z,99.90
2023-04-02T22:27:04.935Z,99.90
2023-04-02T22:29:33.726Z,99.90
2023-04-02T22:32:02.207Z,99.90
2023-04-02T22:34:31.032Z,99.90
2023-04-02T22:36:59.531Z,99.90
2023-04-02T22:39:28.052Z,99.90
2023-04-02T22:41:56.454Z,99.90
2023-04-02T22:44:26.401Z,99.90
2023-04-02T22:46:54.783Z,99.90
2023-04-02T22:49:23.200Z,99.90
2023-04-02T22:51:51.699Z,99.90
2023-04-02T22:54:20.319Z,99.90
2023-04-02T22:56:48.745Z,99.90
2023-04-02T22:59:17.415Z,99.90
2023-04-02T23:01:47.357Z,99.90
2023-04-02T23:04:15.993Z,99.90
2023-04-02T23:06:44.423Z,99.90
2023-04-02T23:09:13.126Z,99.90
2023-04-02T23:11:41.852Z,99.90
2023-04-02T23:14:11.005Z,99.90
2023-04-02T23:16:39.458Z,99.90
2023-04-02T23:19:09.258Z,99.90
2023-04-02T23:21:37.713Z,99.90
2023-04-02T23:24:06.471Z,99.90
2023-04-02T23:26:35.053Z,99.90
2023-04-02T23:29:03.839Z,99.90
2023-04-02T23:31:32.377Z,99.90
2023-04-02T23:34:00.912Z,99.90
2023-04-02T23:36:56.386Z,99.90
2023-04-02T23:39:24.875Z,99.90
2023-04-02T23:41:53.318Z,99.90
2023-04-02T23:44:21.870Z,99.90
2023-04-02T23:46:50.444Z,99.90
2023-04-02T23:49:19.309Z,99.90
2023-04-02T23:51:48.312Z,99.90
2023-04-02T23:54:18.410Z,99.90
2023-04-02T23:56:46.963Z,99.90
2023-04-02T23:59:20.392Z,99.90
